Time;durP1;ratioP1;P1;durP2;ratioP2;P2;SDS_P1;SDS_P2;PMS_P1;PMS_P2;Temp;Humidity;BMP_temperature;BMP_pressure;BME280_temperature;BME280_humidity;BME280_pressure;Samples;Min_cycle;Max_cycle;Signal;HPM_P1;HPM_P2
2022/07/06 00:08:20;;;;;;;5.10;2.50;;;14.40;1.00;;;;;;4875368;29;20268;-87
2022/07/06 00:11:29;;;;;;;3.70;2.60;;;14.30;1.00;;;;;;4893308;29;20315;-83
2022/07/06 00:17:23;;;;;;;2.60;2.33;;;14.20;1.00;;;;;;4809336;29;20279;-85
2022/07/06 00:20:49;;;;;;;3.40;2.20;;;14.10;1.00;;;;;;4791919;29;20244;-86
2022/07/06 00:23:42;;;;;;;2.97;2.07;;;14.10;19.40;;;;;;4826373;29;20193;-85
2022/07/06 00:33:26;;;;;;;6.37;2.73;;;14.00;1.00;;;;;;4896588;29;20220;-86
2022/07/06 00:45:42;;;;;;;6.93;3.50;;;13.90;99.90;;;;;;4930189;29;20210;-84
2022/07/06 00:48:54;;;;;;;5.23;3.10;;;13.90;17.40;;;;;;4932955;29;20208;-85
2022/07/06 00:52:08;;;;;;;2.90;2.60;;;13.90;99.90;;;;;;4901081;29;20231;-86
2022/07/06 01:01:29;;;;;;;7.17;2.83;;;14.00;99.90;;;;;;4885377;29;20209;-86
2022/07/06 01:07:15;;;;;;;5.13;2.70;;;14.00;99.90;;;;;;4876184;29;20207;-86
2022/07/06 01:10:14;;;;;;;4.87;2.60;;;14.10;1.00;;;;;;4961727;29;20271;-86
2022/07/06 01:16:55;;;;;;;4.67;3.30;;;14.10;1.00;;;;;;4847869;29;20207;-84
2022/07/06 01:22:56;;;;;;;4.67;2.93;;;14.10;1.00;;;;;;4835079;29;20279;-88
2022/07/06 01:26:13;;;;;;;;;;;;;;;;;;;;;
2022/07/06 01:35:39;;;;;;;4.53;2.80;;;14.10;1.00;;;;;;4967482;28;20243;-87
2022/07/06 01:41:59;;;;;;;9.53;2.83;;;14.00;1.00;;;;;;4911700;28;20213;-89
2022/07/06 01:45:00;;;;;;;3.63;2.60;;;14.00;1.00;;;;;;4976752;28;20211;-86
2022/07/06 01:51:03;;;;;;;5.57;2.43;;;14.00;1.00;;;;;;4940785;29;20245;-87
2022/07/06 02:06:49;;;;;;;;;;;;;;;;;;;;;
2022/07/06 02:12:44;;;;;;;4.00;2.33;;;13.80;1.00;;;;;;4993305;28;20221;-88
2022/07/06 02:15:25;;;;;;;8.63;3.37;;;13.80;96.20;;;;;;4982908;28;20230;-87
2022/07/06 02:18:23;;;;;;;3.80;2.77;;;13.70;1.00;;;;;;4998393;28;20226;-91
2022/07/06 02:21:35;;;;;;;3.50;3.00;;;13.70;99.90;;;;;;4983461;28;20192;-89
2022/07/06 02:24:17;;;;;;;3.60;2.60;;;13.70;1.00;;;;;;4972978;28;20243;-88
2022/07/06 02:27:20;;;;;;;5.60;2.73;;;13.60;1.00;;;;;;4997411;28;20206;-87
2022/07/06 02:29:53;;;;;;;4.80;2.67;;;13.50;1.00;;;;;;4995584;28;20210;-89
2022/07/06 02:32:42;;;;;;;4.27;3.13;;;13.50;1.00;;;;;;4998395;28;20205;-89
2022/07/06 02:35:25;;;;;;;8.33;2.90;;;13.40;1.00;;;;;;4987283;28;20197;-87
2022/07/06 02:38:17;;;;;;;5.30;3.13;;;13.30;52.50;;;;;;4998927;28;20199;-87
2022/07/06 02:40:57;;;;;;;5.70;2.67;;;13.20;1.00;;;;;;4999175;28;20272;-88
2022/07/06 02:43:34;;;;;;;3.60;3.00;;;13.20;99.90;;;;;;4998563;28;20205;-90
2022/07/06 02:46:21;;;;;;;5.27;2.70;;;13.10;1.00;;;;;;4998472;28;20202;-90
2022/07/06 02:48:59;;;;;;;4.30;2.70;;;13.10;99.90;;;;;;4998685;28;20207;-87
2022/07/06 02:51:33;;;;;;;6.43;2.77;;;13.20;99.90;;;;;;4999150;28;20211;-86
2022/07/06 02:54:04;;;;;;;6.33;3.00;;;13.20;99.90;;;;;;4998940;28;20207;-87
2022/07/06 02:56:39;;;;;;;3.87;2.70;;;13.20;99.90;;;;;;4998808;28;20240;-87
2022/07/06 02:59:17;;;;;;;4.93;2.80;;;13.30;99.90;;;;;;4998618;28;20197;-91
2022/07/06 03:01:44;;;;;;;4.67;2.70;;;13.40;99.90;;;;;;4978506;28;20617;-86
2022/07/06 03:04:16;;;;;;;4.80;2.70;;;13.40;99.90;;;;;;4982772;28;20199;-88
2022/07/06 03:06:54;;;;;;;3.83;2.43;;;13.50;99.90;;;;;;4999066;28;20201;-90
2022/07/06 03:09:22;;;;;;;6.23;2.97;;;13.50;1.00;;;;;;4995388;28;20225;-85
2022/07/06 03:12:01;;;;;;;4.80;2.93;;;13.50;1.00;;;;;;4997874;28;20241;-90
2022/07/06 03:14:37;;;;;;;4.87;2.97;;;13.60;1.00;;;;;;4989739;28;20226;-89
2022/07/06 03:17:10;;;;;;;4.97;2.80;;;13.70;1.00;;;;;;4964657;29;20199;-90
2022/07/06 03:19:48;;;;;;;6.17;2.60;;;13.80;1.00;;;;;;4979264;28;20227;-90
2022/07/06 03:22:25;;;;;;;4.20;2.70;;;13.90;1.00;;;;;;4980591;28;20208;-91
2022/07/06 03:25:07;;;;;;;10.33;2.80;;;14.00;1.00;;;;;;4998814;28;20283;-89
2022/07/06 03:27:52;;;;;;;3.40;2.97;;;14.10;1.00;;;;;;4999057;28;20173;-91
2022/07/06 03:30:36;;;;;;;4.77;3.13;;;14.20;1.00;;;;;;4998539;28;20184;-91
2022/07/06 03:33:10;;;;;;;4.63;2.80;;;14.40;1.00;;;;;;4998750;28;20200;-88
2022/07/06 03:35:37;;;;;;;7.77;2.57;;;14.50;1.00;;;;;;4978471;28;20611;-86
2022/07/06 03:38:05;;;;;;;5.73;2.43;;;14.70;1.00;;;;;;4975109;28;20228;-86
2022/07/06 03:40:36;;;;;;;4.80;3.20;;;14.70;1.00;;;;;;4991671;28;20197;-89
2022/07/06 03:46:16;;;;;;;3.20;2.50;;;15.00;1.00;;;;;;4970190;28;20209;-89
2022/07/06 03:49:03;;;;;;;6.77;3.00;;;15.10;1.00;;;;;;4960243;28;20231;-91
2022/07/06 03:51:43;;;;;;;5.67;2.93;;;15.30;1.00;;;;;;4979054;28;20230;-89
2022/07/06 03:54:33;;;;;;;7.97;2.80;;;15.60;1.00;;;;;;4994226;28;20194;-89
2022/07/06 03:57:29;;;;;;;4.97;2.83;;;15.90;1.00;;;;;;4977492;28;20200;-85
2022/07/06 03:59:56;;;;;;;8.30;2.40;;;16.20;1.00;;;;;;4973869;28;20207;-88
2022/07/06 04:02:23;;;;;;;3.55;2.15;;;16.40;99.90;;;;;;4974240;28;20256;-87
2022/07/06 04:04:50;;;;;;;4.20;2.42;;;16.60;99.90;;;;;;4974219;28;20199;-88
2022/07/06 04:07:17;;;;;;;6.65;2.63;;;16.80;99.90;;;;;;4970186;28;20220;-87
2022/07/06 04:09:45;;;;;;;11.93;3.92;;;17.10;99.90;;;;;;4973738;28;20258;-89
2022/07/06 04:15:12;;;;;;;5.63;2.58;;;17.80;99.90;;;;;;4954837;28;20729;-89
2022/07/06 04:17:55;;;;;;;3.88;2.10;;;18.80;1.00;;;;;;4974794;28;20294;-86
2022/07/06 04:20:24;;;;;;;3.92;2.00;;;19.60;1.00;;;;;;4974447;28;20278;-86
2022/07/06 04:22:52;;;;;;;8.18;1.98;;;19.90;99.90;;;;;;4974401;28;20199;-89
2022/07/06 04:25:20;;;;;;;4.10;2.00;;;19.90;1.00;;;;;;4975523;28;20204;-88
2022/07/06 04:27:47;;;;;;;5.28;1.95;;;20.10;1.00;;;;;;4975850;28;20206;-87
2022/07/06 04:30:15;;;;;;;6.13;2.20;;;20.10;1.00;;;;;;4975778;28;20205;-86
2022/07/06 04:32:42;;;;;;;5.93;2.15;;;20.30;99.90;;;;;;4975766;28;20219;-86
2022/07/06 04:35:09;;;;;;;4.70;3.00;;;20.50;1.00;;;;;;4975516;28;20203;-86
2022/07/06 04:37:37;;;;;;;9.32;3.92;;;21.20;1.00;;;;;;4973992;28;20223;-88
2022/07/06 04:40:05;;;;;;;13.07;6.13;;;22.10;1.00;;;;;;4973800;28;20263;-86
2022/07/06 04:42:33;;;;;;;10.73;5.43;;;23.30;1.00;;;;;;4973332;28;20402;-87
2022/07/06 04:45:00;;;;;;;;;;;24.50;1.00;;;;;;4974100;28;19930;-86
2022/07/06 04:47:27;;;;;;;6.18;2.20;;;25.20;99.90;;;;;;4973928;28;20057;-88
2022/07/06 04:49:54;;;;;;;19.65;8.27;;;25.00;1.00;;;;;;4973942;28;20191;-88
2022/07/06 04:52:21;;;;;;;18.95;6.97;;;24.60;1.00;;;;;;4973986;28;20220;-86
2022/07/06 04:54:48;;;;;;;27.73;9.93;;;24.00;1.00;;;;;;4975420;28;20226;-86
2022/07/06 04:57:20;;;;;;;35.65;13.68;;;23.40;1.00;;;;;;4996223;28;20196;-91
2022/07/06 04:59:56;;;;;;;11.57;4.80;;;22.80;1.00;;;;;;4997649;28;20179;-94
2022/07/06 05:02:40;;;;;;;11.07;4.20;;;22.30;1.00;;;;;;5000937;28;20188;-88
2022/07/06 05:05:11;;;;;;;25.27;12.23;;;21.80;1.00;;;;;;5001226;28;20207;-90
2022/07/06 05:07:40;;;;;;;10.85;6.07;;;21.30;1.00;;;;;;4998043;28;20203;-92
2022/07/06 05:10:12;;;;;;;7.60;4.53;;;20.80;1.00;;;;;;4997421;28;20207;-90
2022/07/06 05:12:44;;;;;;;4.90;3.42;;;20.40;1.00;;;;;;4983903;28;20225;-92
2022/07/06 05:15:16;;;;;;;4.68;2.38;;;20.00;1.00;;;;;;4999742;28;20238;-88
2022/07/06 05:17:47;;;;;;;;;;;19.60;94.20;;;;;;5000365;28;20078;-90
2022/07/06 05:20:19;;;;;;;4.05;1.85;;;19.30;99.90;;;;;;5000271;28;20200;-91
2022/07/06 05:22:55;;;;;;;3.45;2.20;;;18.90;99.90;;;;;;4999622;28;20184;-91
2022/07/06 05:25:26;;;;;;;6.00;2.30;;;18.60;99.90;;;;;;4999990;28;20227;-89
2022/07/06 05:27:57;;;;;;;5.53;2.10;;;18.30;1.00;;;;;;4999186;28;20184;-88
2022/07/06 05:30:29;;;;;;;20.63;3.65;;;18.10;1.00;;;;;;4979464;29;20204;-88
2022/07/06 05:33:00;;;;;;;4.90;3.03;;;17.90;1.00;;;;;;4980551;28;20251;-90
2022/07/06 05:35:32;;;;;;;3.90;3.00;;;17.80;1.00;;;;;;4986097;28;20199;-91
2022/07/06 05:38:01;;;;;;;9.57;3.15;;;17.60;99.90;;;;;;4999749;28;20189;-92
2022/07/06 05:40:35;;;;;;;6.60;3.45;;;17.60;99.90;;;;;;5000175;28;20179;-92
2022/07/06 05:43:17;;;;;;;8.65;2.03;;;17.60;99.90;;;;;;5000113;28;20205;-93
2022/07/06 05:45:53;;;;;;;3.40;1.60;;;17.60;99.90;;;;;;5000842;28;20183;-91
2022/07/06 05:51:30;;;;;;;5.38;2.10;;;17.70;1.00;;;;;;5000183;28;20191;-91
2022/07/06 05:54:02;;;;;;;6.75;1.67;;;17.90;1.00;;;;;;5000420;28;20231;-92
2022/07/06 05:56:42;;;;;;;4.72;1.92;;;18.20;1.00;;;;;;5000481;28;20188;-90
2022/07/06 05:59:13;;;;;;;2.75;1.55;;;18.40;1.00;;;;;;4999826;28;20227;-92
2022/07/06 06:02:05;;;;;;;4.88;1.70;;;18.50;1.00;;;;;;4999840;28;20203;-91
2022/07/06 06:04:45;;;;;;;8.63;2.40;;;18.50;99.90;;;;;;4999644;28;20192;-92
2022/07/06 06:07:16;;;;;;;11.82;2.13;;;18.50;99.90;;;;;;4998887;28;20230;-94
2022/07/06 06:09:52;;;;;;;26.05;3.88;;;18.40;99.90;;;;;;4999906;28;20183;-88
2022/07/06 06:12:45;;;;;;;3.58;1.95;;;18.30;99.90;;;;;;4980181;28;20203;-93
2022/07/06 06:15:17;;;;;;;2.72;1.80;;;18.10;99.90;;;;;;4990553;28;20239;-92
2022/07/06 06:17:57;;;;;;;2.28;1.90;;;17.90;99.90;;;;;;4999113;28;20250;-87
2022/07/06 06:20:31;;;;;;;5.50;1.90;;;17.70;99.90;;;;;;4999588;28;20199;-94
2022/07/06 06:23:04;;;;;;;8.10;2.33;;;17.50;99.90;;;;;;4999906;28;20213;-92
2022/07/06 06:25:36;;;;;;;4.32;2.13;;;17.50;1.00;;;;;;4998947;28;20672;-93
2022/07/06 06:28:10;;;;;;;5.60;2.65;;;17.50;1.00;;;;;;4998756;28;20210;-92
2022/07/06 06:30:46;;;;;;;3.72;2.10;;;17.60;1.00;;;;;;4996609;28;20206;-91
2022/07/06 06:33:22;;;;;;;6.10;2.80;;;17.70;7.40;;;;;;4996793;28;20221;-91
2022/07/06 06:35:54;;;;;;;8.43;2.20;;;17.90;99.90;;;;;;4998946;28;20223;-91
2022/07/06 06:38:29;;;;;;;5.75;2.17;;;18.30;99.90;;;;;;4999079;28;20199;-91
2022/07/06 06:41:03;;;;;;;4.38;1.90;;;18.90;1.00;;;;;;4998669;28;20192;-91
2022/07/06 06:43:30;;;;;;;4.25;2.20;;;19.50;99.90;;;;;;4998444;28;20205;-92
2022/07/06 06:46:11;;;;;;;7.82;2.95;;;19.70;1.00;;;;;;4998400;28;20179;-92
2022/07/06 06:51:42;;;;;;;16.27;4.82;;;19.80;1.00;;;;;;4999326;28;20263;-93
2022/07/06 06:57:09;;;;;;;30.90;11.82;;;19.90;1.00;;;;;;4997198;28;20204;-92
2022/07/06 06:59:57;;;;;;;33.08;12.65;;;19.90;1.00;;;;;;4999368;28;20183;-93
2022/07/06 07:02:43;;;;;;;50.63;17.70;;;19.90;1.00;;;;;;4999055;28;20298;-92
2022/07/06 07:05:34;;;;;;;38.47;15.02;;;20.20;1.00;;;;;;4999219;28;20186;-92
2022/07/06 07:08:12;;;;;;;40.83;16.02;;;20.30;99.90;;;;;;4983017;28;20180;-94
2022/07/06 07:10:43;;;;;;;120.03;47.00;;;20.50;99.90;;;;;;4998610;28;20196;-91
2022/07/06 07:13:17;;;;;;;15.73;9.40;;;20.70;99.90;;;;;;4999070;28;20223;-95
2022/07/06 07:15:53;;;;;;;20.60;11.48;;;20.80;99.90;;;;;;4998735;28;20235;-94
2022/07/06 07:18:23;;;;;;;16.85;8.63;;;21.20;99.90;;;;;;4998121;28;20176;-94
2022/07/06 07:20:56;;;;;;;7.85;3.55;;;21.30;91.10;;;;;;4998876;28;20216;-91
2022/07/06 07:23:32;;;;;;;23.83;11.07;;;21.30;1.00;;;;;;4998755;28;20183;-91
2022/07/06 07:26:09;;;;;;;14.73;7.97;;;21.10;1.00;;;;;;4997887;28;20247;-92
2022/07/06 07:28:48;;;;;;;3.72;1.70;;;21.10;1.00;;;;;;4999187;28;20192;-94
2022/07/06 07:31:26;;;;;;;3.55;2.35;;;21.30;1.00;;;;;;4998368;28;20195;-91
2022/07/06 07:33:59;;;;;;;5.15;2.92;;;21.50;1.00;;;;;;4998555;28;20219;-92
2022/07/06 07:36:32;;;;;;;4.78;1.70;;;21.60;1.00;;;;;;4999446;28;20187;-91
2022/07/06 07:39:03;;;;;;;24.63;14.27;;;22.10;90.00;;;;;;4999131;28;20172;-93
2022/07/06 07:41:37;;;;;;;20.17;12.25;;;23.40;99.90;;;;;;4999024;28;20043;-90
2022/07/06 07:44:11;;;;;;;9.00;4.82;;;25.10;99.90;;;;;;4999290;28;20226;-96
2022/07/06 07:47:05;;;;;;;;;;;26.80;1.00;;;;;;4998757;28;20063;-93
2022/07/06 07:49:43;;;;;;;9.25;4.75;;;28.30;1.00;;;;;;4998184;28;20290;-93
2022/07/06 07:54:53;;;;;;;;;;;29.20;99.90;;;;;;4998072;28;19925;-93
2022/07/06 07:57:22;;;;;;;;;;;29.80;99.90;;;;;;4998085;28;19984;-94
2022/07/06 08:00:05;;;;;;;;;;;30.30;99.90;;;;;;4998167;28;19933;-92
2022/07/06 08:02:41;;;;;;;5.80;3.13;;;30.60;99.90;;;;;;4997227;28;20193;-92
2022/07/06 08:05:33;;;;;;;4.95;2.47;;;31.50;99.90;;;;;;4997535;28;20195;-94
2022/07/06 08:08:09;;;;;;;19.38;6.57;;;31.60;99.90;;;;;;4995989;28;20200;-95
2022/07/06 08:10:46;;;;;;;9.93;3.90;;;31.30;99.90;;;;;;4995806;28;20184;-89
2022/07/06 08:13:17;;;;;;;12.77;5.40;;;30.90;99.90;;;;;;4995800;28;20219;-89
2022/07/06 08:15:58;;;;;;;7.65;3.97;;;30.20;99.90;;;;;;4995353;28;20219;-88
2022/07/06 08:18:32;;;;;;;11.57;3.47;;;29.10;99.90;;;;;;4995819;28;20270;-89
2022/07/06 08:21:00;;;;;;;12.85;6.10;;;28.40;99.90;;;;;;4994753;28;20247;-94
2022/07/06 08:23:40;;;;;;;9.05;4.32;;;28.80;99.90;;;;;;4996185;28;20214;-92
2022/07/06 08:26:28;;;;;;;4.68;2.38;;;29.70;99.90;;;;;;4994168;28;20250;-94
2022/07/06 08:29:08;;;;;;;5.00;1.20;;;30.20;99.90;;;;;;4995400;28;20202;-92
2022/07/06 08:34:34;;;;;;;;;;;29.10;99.90;;;;;;4988840;28;20055;-92
2022/07/06 08:37:18;;;;;;;9.00;2.90;;;28.20;99.90;;;;;;4996679;28;20066;-91
2022/07/06 08:39:48;;;;;;;6.18;2.70;;;27.30;99.90;;;;;;4995991;28;20193;-90
2022/07/06 08:42:32;;;;;;;2.50;1.58;;;26.90;99.90;;;;;;4994322;28;20219;-91
2022/07/06 08:45:01;;;;;;;5.05;2.40;;;27.60;99.90;;;;;;4994168;28;20186;-93
2022/07/06 08:47:40;;;;;;;3.38;1.58;;;28.70;99.90;;;;;;4994106;28;20200;-95
2022/07/06 08:50:22;;;;;;;;;;;;;;;;;;;;;
2022/07/06 08:52:59;;;;;;;4.68;2.08;;;30.90;99.90;;;;;;4985040;28;20208;-88
2022/07/06 08:55:33;;;;;;;8.18;4.25;;;31.60;99.90;;;;;;4974416;28;20202;-92
2022/07/06 08:58:12;;;;;;;4.97;1.10;;;32.00;99.90;;;;;;4983507;28;20203;-93
2022/07/06 09:00:56;;;;;;;4.05;2.70;;;31.40;99.90;;;;;;4994073;28;20204;-92
2022/07/06 09:03:40;;;;;;;3.80;1.88;;;30.60;99.90;;;;;;4994501;28;20250;-93
2022/07/06 09:06:18;;;;;;;2.03;1.30;;;30.70;99.90;;;;;;4993677;28;20219;-91
2022/07/06 09:08:53;;;;;;;2.83;1.05;;;31.20;99.90;;;;;;4993878;28;20184;-93
2022/07/06 09:11:33;;;;;;;3.13;1.00;;;31.90;99.90;;;;;;4986250;28;20353;-90
2022/07/06 09:14:13;;;;;;;3.47;0.98;;;31.80;99.90;;;;;;4978704;28;20185;-94
2022/07/06 09:16:54;;;;;;;2.08;0.70;;;30.80;99.90;;;;;;4976120;28;20164;-92
2022/07/06 09:19:31;;;;;;;1.50;0.60;;;29.60;99.90;;;;;;4981594;28;20101;-92
2022/07/06 09:22:06;;;;;;;3.55;0.88;;;28.40;99.90;;;;;;4996154;28;20187;-95
2022/07/06 09:24:51;;;;;;;3.55;1.10;;;28.30;99.90;;;;;;4996150;28;20183;-91
2022/07/06 09:27:37;;;;;;;1.50;0.70;;;28.60;99.90;;;;;;4995623;28;20253;-95
2022/07/06 09:30:17;;;;;;;2.25;0.77;;;28.90;99.90;;;;;;4995448;28;20214;-90
2022/07/06 09:32:54;;;;;;;2.90;0.90;;;28.90;99.90;;;;;;4996624;28;20256;-89
2022/07/06 09:35:32;;;;;;;;;;;28.40;99.90;;;;;;4996358;28;20034;-93
2022/07/06 09:38:07;;;;;;;1.25;0.70;;;27.60;99.90;;;;;;4995592;28;20178;-93
2022/07/06 09:40:48;;;;;;;1.10;0.70;;;26.80;99.90;;;;;;4995449;28;20203;-92
2022/07/06 09:43:27;;;;;;;3.45;0.70;;;26.20;99.90;;;;;;4999294;28;20231;-93
2022/07/06 09:46:04;;;;;;;3.35;0.98;;;26.00;99.90;;;;;;4998908;28;20227;-93
2022/07/06 09:48:34;;;;;;;3.20;0.80;;;26.50;99.90;;;;;;4998727;28;20244;-92
2022/07/06 09:51:19;;;;;;;14.20;0.80;;;26.60;99.90;;;;;;4998644;28;20203;-94
2022/07/06 09:53:56;;;;;;;3.45;1.00;;;26.20;99.90;;;;;;4998641;28;20230;-94
2022/07/06 10:02:36;;;;;;;8.55;1.13;;;26.30;99.90;;;;;;4955100;28;20282;-88
2022/07/06 10:05:04;;;;;;;1.48;0.63;;;26.20;99.90;;;;;;4977053;28;20092;-89
2022/07/06 10:07:31;;;;;;;;;;;25.70;99.90;;;;;;4977552;28;20088;-89
2022/07/06 10:09:59;;;;;;;2.42;0.70;;;25.10;99.90;;;;;;4977140;28;20193;-90
2022/07/06 10:12:26;;;;;;;1.88;0.63;;;24.50;99.90;;;;;;4976816;28;20216;-89
2022/07/06 10:14:55;;;;;;;2.15;0.70;;;24.00;99.90;;;;;;4976810;28;20595;-89
2022/07/06 10:17:23;;;;;;;3.30;0.70;;;23.60;99.90;;;;;;4976900;28;20710;-89
2022/07/06 10:19:51;;;;;;;1.55;0.60;;;23.30;99.90;;;;;;4976851;28;20205;-89
2022/07/06 10:22:19;;;;;;;;;;;23.10;99.90;;;;;;4977361;28;20093;-87
2022/07/06 10:24:47;;;;;;;;;;;22.90;99.90;;;;;;4977291;28;19929;-90
2022/07/06 10:27:16;;;;;;;3.45;0.75;;;22.80;99.90;;;;;;4976144;28;20179;-88
2022/07/06 10:29:43;;;;;;;3.25;0.90;;;22.80;99.90;;;;;;4976266;28;20192;-89
2022/07/06 10:32:12;;;;;;;2.63;0.60;;;23.00;99.90;;;;;;4976734;28;20199;-89
2022/07/06 10:34:39;;;;;;;1.42;0.70;;;23.10;99.90;;;;;;4976051;28;20654;-88
2022/07/06 10:37:06;;;;;;;1.20;0.70;;;23.20;99.90;;;;;;4976716;28;20208;-89
2022/07/06 10:42:42;;;;;;;3.45;1.02;;;23.40;99.90;;;;;;4976991;28;20278;-90
2022/07/06 10:45:11;;;;;;;2.47;0.63;;;23.40;99.90;;;;;;4975435;28;20568;-87
2022/07/06 10:47:40;;;;;;;1.35;0.70;;;23.10;99.90;;;;;;4975930;28;20571;-90
2022/07/06 10:50:08;;;;;;;1.30;0.57;;;22.90;99.90;;;;;;4977015;28;20558;-88
2022/07/06 10:52:58;;;;;;;2.05;0.80;;;22.70;99.90;;;;;;4975393;28;20203;-90
2022/07/06 10:55:33;;;;;;;2.92;0.80;;;22.40;99.90;;;;;;4977059;28;20665;-88
2022/07/06 10:58:01;;;;;;;19.90;2.35;;;22.20;99.90;;;;;;4977335;28;20199;-89
2022/07/06 11:00:51;;;;;;;1.35;0.68;;;22.10;99.90;;;;;;4976638;28;20219;-89
2022/07/06 11:03:37;;;;;;;0.95;0.70;;;22.10;99.90;;;;;;4977208;28;20243;-89
2022/07/06 11:06:07;;;;;;;4.18;0.60;;;22.00;99.90;;;;;;4977244;28;20262;-87
2022/07/06 11:08:48;;;;;;;1.45;0.68;;;22.10;99.90;;;;;;4976559;28;20283;-88
2022/07/06 11:11:17;;;;;;;2.38;0.70;;;22.20;99.90;;;;;;4976419;28;20246;-88
2022/07/06 11:13:49;;;;;;;1.08;0.60;;;22.30;99.90;;;;;;4976457;28;20290;-89
2022/07/06 11:16:17;;;;;;;1.77;0.82;;;22.40;99.90;;;;;;4976567;28;20223;-89
2022/07/06 11:18:49;;;;;;;;;;;22.50;99.90;;;;;;4977301;28;20200;-88
2022/07/06 11:21:21;;;;;;;1.17;0.63;;;22.60;99.90;;;;;;4976188;28;20537;-88
2022/07/06 11:23:48;;;;;;;;;;;22.70;99.90;;;;;;4976865;28;20329;-88
2022/07/06 11:26:15;;;;;;;;;;;22.80;99.90;;;;;;4976074;28;19934;-88
2022/07/06 11:28:42;;;;;;;;;;;22.80;99.90;;;;;;4976320;28;20404;-90
2022/07/06 11:31:09;;;;;;;;;;;22.80;99.90;;;;;;4975769;28;19930;-90
2022/07/06 11:33:36;;;;;;;;;;;22.80;99.90;;;;;;4975737;28;19949;-89
2022/07/06 11:36:18;;;;;;;;;;;22.90;99.90;;;;;;4975943;28;20281;-89
2022/07/06 11:38:45;;;;;;;;;;;23.30;99.90;;;;;;4976341;28;20408;-89
2022/07/06 11:41:23;;;;;;;;;;;23.60;99.90;;;;;;4991739;28;19917;-93
2022/07/06 11:43:51;;;;;;;;;;;23.70;99.90;;;;;;4995350;28;19933;-90
2022/07/06 11:46:21;;;;;;;;;;;23.70;99.90;;;;;;4976371;28;19968;-91
2022/07/06 11:48:48;;;;;;;;;;;23.40;99.90;;;;;;4976346;28;19926;-88
2022/07/06 11:51:17;;;;;;;1.65;0.60;;;23.10;99.90;;;;;;4975736;28;20046;-88
2022/07/06 11:53:46;;;;;;;2.80;0.70;;;22.80;99.90;;;;;;4975582;28;20654;-90
2022/07/06 11:56:15;;;;;;;2.30;0.80;;;22.50;99.90;;;;;;4976173;28;20219;-89
2022/07/06 11:58:43;;;;;;;3.70;0.70;;;22.20;99.90;;;;;;4976059;28;20258;-90
2022/07/06 12:07:14;;;;;;;;;;;21.30;99.90;;;;;;4970654;28;20069;-89
2022/07/06 12:09:42;;;;;;;1.90;0.68;;;21.00;99.90;;;;;;4976549;28;20205;-89
2022/07/06 12:12:11;;;;;;;1.67;0.70;;;20.80;99.90;;;;;;4975829;28;20199;-89
2022/07/06 12:14:39;;;;;;;1.23;0.50;;;20.50;99.90;;;;;;4976588;28;20583;-90
2022/07/06 12:17:08;;;;;;;0.90;0.55;;;20.40;99.90;;;;;;4978157;28;20213;-89
2022/07/06 12:19:36;;;;;;;3.78;0.50;;;20.30;99.90;;;;;;4964212;28;20196;-89
2022/07/06 12:22:04;;;;;;;2.28;0.55;;;20.40;99.90;;;;;;4978241;28;20212;-88
2022/07/06 12:24:35;;;;;;;2.75;0.50;;;20.60;99.90;;;;;;4977806;28;20220;-90
2022/07/06 12:27:12;;;;;;;0.77;0.57;;;20.80;99.90;;;;;;4976344;28;20199;-88
2022/07/06 12:29:39;;;;;;;1.42;0.65;;;21.00;99.90;;;;;;4977236;28;20188;-88
2022/07/06 12:32:08;;;;;;;1.17;0.60;;;21.20;99.90;;;;;;4975717;28;20268;-89
2022/07/06 12:34:35;;;;;;;1.42;0.68;;;21.30;99.90;;;;;;4975574;28;20196;-90
2022/07/06 12:37:08;;;;;;;1.45;0.60;;;21.40;99.90;;;;;;4977200;28;20214;-89
2022/07/06 12:39:44;;;;;;;1.42;0.50;;;21.50;99.90;;;;;;4976874;28;20200;-90
2022/07/06 12:42:11;;;;;;;2.03;0.50;;;21.50;99.90;;;;;;4976093;28;20206;-90
2022/07/06 12:44:44;;;;;;;1.70;0.65;;;21.60;99.90;;;;;;4976566;28;20254;-89
2022/07/06 12:47:11;;;;;;;4.05;0.82;;;21.70;99.90;;;;;;4975497;28;20658;-89
2022/07/06 12:49:40;;;;;;;0.75;0.50;;;21.80;99.90;;;;;;4975044;28;20242;-89
2022/07/06 12:52:12;;;;;;;0.77;0.57;;;21.90;99.90;;;;;;4975131;28;20203;-89
2022/07/06 12:54:45;;;;;;;0.90;0.57;;;22.00;99.90;;;;;;4974389;28;20208;-89
2022/07/06 12:57:14;;;;;;;0.88;0.47;;;22.10;99.90;;;;;;4975918;28;20199;-89
2022/07/06 12:59:46;;;;;;;1.85;0.65;;;22.20;99.90;;;;;;4975628;28;20199;-89
2022/07/06 13:02:21;;;;;;;4.00;0.57;;;22.40;99.90;;;;;;4975971;28;20274;-89
2022/07/06 13:05:07;;;;;;;0.43;0.40;;;22.60;99.90;;;;;;4976047;28;20204;-89
2022/07/06 13:07:36;;;;;;;1.52;0.52;;;22.90;99.90;;;;;;4975063;28;20200;-89
2022/07/06 13:10:07;;;;;;;2.83;0.80;;;23.00;99.90;;;;;;4974524;28;20658;-89
2022/07/06 13:12:34;;;;;;;1.25;0.70;;;23.10;99.90;;;;;;4975422;28;20204;-89
2022/07/06 13:15:02;;;;;;;1.67;0.70;;;23.20;99.90;;;;;;4974448;28;20234;-89
2022/07/06 13:17:29;;;;;;;4.05;0.85;;;23.20;99.90;;;;;;4977127;28;20203;-88
2022/07/06 13:19:56;;;;;;;2.38;0.70;;;23.20;99.90;;;;;;4979748;28;20231;-89
2022/07/06 13:22:23;;;;;;;2.47;0.73;;;23.20;99.90;;;;;;4979056;28;20193;-90
2022/07/06 13:24:50;;;;;;;2.53;0.60;;;23.20;99.90;;;;;;4979369;28;20251;-89
2022/07/06 13:27:18;;;;;;;1.27;0.65;;;23.20;99.90;;;;;;4978346;28;20207;-89
2022/07/06 13:29:46;;;;;;;1.25;0.68;;;23.30;99.90;;;;;;4977936;28;20203;-89
2022/07/06 13:32:13;;;;;;;1.80;0.50;;;23.30;99.90;;;;;;4977750;28;20677;-91
2022/07/06 13:34:40;;;;;;;2.10;0.60;;;23.30;99.90;;;;;;4978228;28;20251;-90
2022/07/06 13:37:07;;;;;;;0.68;0.50;;;23.30;99.90;;;;;;4978898;28;20222;-89
2022/07/06 13:39:34;;;;;;;2.50;0.52;;;23.30;99.90;;;;;;4978754;28;20214;-90
2022/07/06 13:42:01;;;;;;;1.55;0.52;;;23.20;99.90;;;;;;4979289;28;20199;-88
2022/07/06 13:44:30;;;;;;;2.85;0.70;;;23.30;99.90;;;;;;4978863;28;20227;-89
2022/07/06 13:46:57;;;;;;;4.20;0.75;;;23.40;99.90;;;;;;4975740;28;20209;-85
2022/07/06 13:49:24;;;;;;;7.63;0.60;;;23.30;99.90;;;;;;4976934;28;20203;-84
2022/07/06 13:51:51;;;;;;;3.53;0.65;;;23.30;99.90;;;;;;4976210;28;20199;-84
2022/07/06 13:54:18;;;;;;;0.80;0.50;;;23.30;99.90;;;;;;4964209;28;20200;-84
2022/07/06 13:56:45;;;;;;;1.55;0.60;;;23.40;99.90;;;;;;4960694;28;20558;-83
2022/07/06 13:59:12;;;;;;;1.00;0.60;;;23.50;99.90;;;;;;4976745;28;20195;-85
2022/07/06 14:01:40;;;;;;;1.75;0.68;;;23.70;99.90;;;;;;4969313;28;20203;-86
2022/07/06 14:04:07;;;;;;;6.05;0.65;;;23.70;99.90;;;;;;4976330;28;20227;-87
2022/07/06 14:06:35;;;;;;;3.33;0.47;;;23.70;99.90;;;;;;4977906;28;20202;-86
2022/07/06 14:09:02;;;;;;;3.60;0.43;;;23.70;99.90;;;;;;4977206;28;20199;-86
2022/07/06 14:11:29;;;;;;;2.28;0.60;;;23.60;99.90;;;;;;4977860;28;20192;-86
2022/07/06 14:13:56;;;;;;;3.10;0.52;;;23.50;99.90;;;;;;4979577;28;20199;-84
2022/07/06 14:16:24;;;;;;;1.73;0.40;;;23.40;99.90;;;;;;4969303;28;20606;-85
2022/07/06 14:18:52;;;;;;;3.25;0.52;;;23.30;99.90;;;;;;4968929;28;20200;-83
2022/07/06 14:21:19;;;;;;;1.08;0.47;;;23.30;99.90;;;;;;4986838;28;20207;-85
2022/07/06 14:23:48;;;;;;;2.55;0.52;;;23.20;99.90;;;;;;4981989;28;20202;-86
2022/07/06 14:26:15;;;;;;;1.73;0.70;;;23.10;99.90;;;;;;4976210;28;20196;-87
2022/07/06 14:28:48;;;;;;;1.80;0.75;;;23.10;99.90;;;;;;4986249;28;20235;-92
2022/07/06 14:31:33;;;;;;;5.22;2.38;;;23.10;99.90;;;;;;4999737;28;20195;-95
2022/07/06 14:34:02;;;;;;;2.67;0.70;;;23.10;99.90;;;;;;4975626;28;20204;-87
2022/07/06 14:36:29;;;;;;;1.55;1.00;;;23.20;99.90;;;;;;4975110;28;20207;-85
2022/07/06 14:38:56;;;;;;;2.20;0.70;;;23.30;99.90;;;;;;4975561;28;20693;-87
2022/07/06 14:41:23;;;;;;;3.15;0.80;;;23.30;99.90;;;;;;4975677;28;20207;-88
2022/07/06 14:44:26;;;;;;;3.17;0.82;;;23.30;99.90;;;;;;4981386;28;20215;-91
2022/07/06 14:46:54;;;;;;;1.05;0.60;;;23.40;99.90;;;;;;4992435;28;20202;-86
2022/07/06 14:49:22;;;;;;;2.85;0.82;;;23.40;99.90;;;;;;4982068;28;20202;-84
2022/07/06 14:55:09;;;;;;;1.52;0.60;;;23.20;99.90;;;;;;4959386;28;20262;-89
2022/07/06 14:57:36;;;;;;;1.40;0.63;;;23.20;99.90;;;;;;4975220;28;20196;-85
2022/07/06 15:00:16;;;;;;;3.38;0.70;;;23.00;99.90;;;;;;4985246;28;20200;-89
2022/07/06 15:03:07;;;;;;;1.77;0.70;;;23.00;99.90;;;;;;4988752;28;20200;-87
2022/07/06 15:05:36;;;;;;;1.88;0.80;;;23.00;99.90;;;;;;4971188;28;20306;-87
2022/07/06 15:08:03;;;;;;;5.45;0.73;;;22.90;99.90;;;;;;4974946;28;20199;-85
2022/07/06 15:10:31;;;;;;;0.50;0.40;;;22.80;99.90;;;;;;4984803;28;20207;-83
2022/07/06 15:13:11;;;;;;;1.98;0.70;;;22.70;99.90;;;;;;4974161;28;20192;-85
2022/07/06 15:15:38;;;;;;;1.00;0.60;;;22.60;99.90;;;;;;4976703;28;20247;-86
2022/07/06 15:18:11;;;;;;;1.30;0.68;;;22.60;99.90;;;;;;4985793;28;20182;-91
2022/07/06 15:20:40;;;;;;;0.88;0.55;;;22.50;99.90;;;;;;4989237;28;20291;-86
2022/07/06 15:23:07;;;;;;;1.08;0.63;;;22.30;99.90;;;;;;4974314;28;20199;-85
2022/07/06 15:25:36;;;;;;;5.10;0.68;;;22.20;99.90;;;;;;4974966;28;20224;-85
2022/07/06 15:28:04;;;;;;;1.40;0.73;;;22.10;99.90;;;;;;4973647;28;20203;-85
2022/07/06 15:30:33;;;;;;;4.07;0.88;;;22.00;99.90;;;;;;4971731;28;20538;-90